createdAt,value
2019-01-11T00:00:46.603Z,98797.23
2019-01-11T00:03:15.824Z,98804.41
2019-01-11T00:05:44.699Z,98798.07
2019-01-11T00:08:13.775Z,98803.16
2019-01-11T00:10:42.950Z,98802.09
2019-01-11T00:13:11.934Z,98802.56
2019-01-11T00:15:40.899Z,98797.59
2019-01-11T00:18:09.989Z,98800.55
2019-01-11T00:20:38.974Z,98800.78
2019-01-11T00:23:07.952Z,98792.06
2019-01-11T00:25:36.917Z,98799.63
2019-01-11T00:28:05.889Z,98801.73
2019-01-11T00:30:35.512Z,98800.89
2019-01-11T00:33:04.500Z,98798.57
2019-01-11T00:35:33.477Z,98798.57
2019-01-11T00:38:02.387Z,98806.28
2019-01-11T00:40:31.360Z,98805.25
2019-01-11T00:43:00.319Z,98806.69
2019-01-11T00:45:29.292Z,98804.91
2019-01-11T00:47:58.183Z,98812.77
2019-01-11T00:50:27.155Z,98809.12
2019-01-11T00:52:56.142Z,98810.20
2019-01-11T00:55:25.052Z,98813.05
2019-01-11T00:57:54.037Z,98815.53
2019-01-11T01:00:24.121Z,98814.02
2019-01-11T01:02:53.076Z,98814.02
2019-01-11T01:05:22.060Z,98812.44
2019-01-11T01:07:51.450Z,98820.67
2019-01-11T01:10:21.723Z,98818.95
2019-01-11T01:12:50.613Z,98817.36
2019-01-11T01:15:20.658Z,98824.70
2019-01-11T01:17:49.620Z,98824.70
2019-01-11T01:20:18.990Z,98833.11
2019-01-11T01:22:48.053Z,98828.63
2019-01-11T01:25:17.022Z,98832.95
2019-01-11T01:27:45.977Z,98842.78
2019-01-11T01:30:16.738Z,98837.78
2019-01-11T01:32:46.107Z,98852.41
2019-01-11T01:35:15.099Z,98848.25
2019-01-11T01:37:44.679Z,98847.09
2019-01-11T01:40:14.397Z,98854.01
2019-01-11T01:42:43.366Z,98851.39
2019-01-11T01:45:14.085Z,98857.37
2019-01-11T01:47:43.916Z,98854.52
2019-01-11T01:50:13.944Z,98849.75
2019-01-11T01:52:42.836Z,98847.97
2019-01-11T01:55:12.293Z,98852.70
2019-01-11T01:57:41.181Z,98850.30
2019-01-11T02:00:13.009Z,98852.27
2019-01-11T02:02:42.080Z,98851.24
2019-01-11T02:05:11.344Z,98857.36
2019-01-11T02:07:40.232Z,98851.29
2019-01-11T02:10:11.278Z,98855.86
2019-01-11T02:12:40.233Z,98858.58
2019-01-11T02:15:10.491Z,98863.35
2019-01-11T02:17:39.564Z,98855.44
2019-01-11T02:20:14.739Z,98858.02
2019-01-11T02:22:43.939Z,98858.24
2019-01-11T02:25:13.262Z,98849.28
2019-01-11T02:27:42.214Z,98856.94
2019-01-11T02:30:16.862Z,98848.77
2019-01-11T02:32:52.349Z,98840.50
2019-01-11T02:35:16.863Z,98846.80
2019-01-11T02:37:45.820Z,98840.02
2019-01-11T02:40:15.201Z,98844.84
2019-01-11T02:42:44.184Z,98848.77
2019-01-11T02:45:15.514Z,98849.87
2019-01-11T02:47:44.513Z,98851.66
2019-01-11T02:50:13.502Z,98848.86
2019-01-11T02:52:42.475Z,98842.97
2019-01-11T02:55:11.444Z,98846.28
2019-01-11T02:57:40.442Z,98848.16
2019-01-11T03:00:17.814Z,98841.30
2019-01-11T03:02:46.788Z,98847.55
2019-01-11T03:05:15.756Z,98847.17
2019-01-11T03:07:45.167Z,98840.63
2019-01-11T03:10:16.707Z,98847.27
2019-01-11T03:12:46.212Z,98846.47
2019-01-11T03:15:16.031Z,98849.78
2019-01-11T03:17:45.482Z,98848.95
2019-01-11T03:20:15.118Z,98843.48
2019-01-11T03:22:44.150Z,98843.90
2019-01-11T03:25:13.479Z,98842.03
2019-01-11T03:27:42.763Z,98844.64
2019-01-11T03:30:14.579Z,98844.36
2019-01-11T03:32:43.713Z,98847.91
2019-01-11T03:35:17.079Z,98842.48
2019-01-11T03:37:48.016Z,98848.23
2019-01-11T03:40:18.533Z,98845.78
2019-01-11T03:42:47.522Z,98846.47
2019-01-11T03:45:17.949Z,98848.75
2019-01-11T03:47:47.087Z,98837.59
2019-01-11T03:50:16.665Z,98848.55
2019-01-11T03:52:45.836Z,98854.38
2019-01-11T03:55:15.781Z,98849.92
2019-01-11T03:57:44.758Z,98851.70
2019-01-11T04:00:19.397Z,98854.91
2019-01-11T04:02:48.486Z,98849.79
2019-01-11T04:05:17.459Z,98852.03
2019-01-11T04:07:46.453Z,98853.00
2019-01-11T04:10:17.578Z,98848.78
2019-01-11T04:12:46.430Z,98851.27
2019-01-11T04:15:16.520Z,98845.34
2019-01-11T04:17:47.306Z,98844.86
2019-01-11T04:20:17.886Z,98849.76
2019-01-11T04:22:55.046Z,98845.90
2019-01-11T04:25:29.856Z,98839.77
2019-01-11T04:27:58.837Z,98837.55
2019-01-11T04:30:27.798Z,98845.23
2019-01-11T04:32:56.745Z,98847.68
2019-01-11T04:35:25.643Z,98845.33
2019-01-11T04:37:54.529Z,98840.11
2019-01-11T04:40:23.704Z,98846.11
2019-01-11T04:42:52.545Z,98846.53
2019-01-11T04:45:21.489Z,98845.02
2019-01-11T04:47:50.445Z,98841.77
2019-01-11T04:50:19.812Z,98841.46
2019-01-11T04:52:48.768Z,98839.95
2019-01-11T04:55:17.950Z,98838.64
2019-01-11T04:57:46.849Z,98841.85
2019-01-11T05:00:20.900Z,98843.91
2019-01-11T05:02:49.859Z,98841.19
2019-01-11T05:05:19.142Z,98838.84
2019-01-11T05:07:48.132Z,98842.78
2019-01-11T05:10:18.736Z,98847.80
2019-01-11T05:12:47.723Z,98845.54
2019-01-11T05:15:16.851Z,98844.23
2019-01-11T05:17:45.819Z,98850.41
2019-01-11T05:20:17.333Z,98846.62
2019-01-11T05:22:47.226Z,98847.42
2019-01-11T05:25:16.395Z,98852.05
2019-01-11T05:27:45.389Z,98848.42
2019-01-11T05:30:21.353Z,98850.81
2019-01-11T05:32:50.245Z,98846.77
2019-01-11T05:35:19.253Z,98848.55
2019-01-11T05:37:48.233Z,98848.29
2019-01-11T05:40:18.709Z,98851.27
2019-01-11T05:42:47.665Z,98848.34
2019-01-11T05:45:18.149Z,98845.50
2019-01-11T05:47:47.441Z,98850.05
2019-01-11T05:50:24.092Z,98853.13
2019-01-11T05:52:50.824Z,98854.22
2019-01-11T05:55:36.605Z,98847.20
2019-01-11T05:58:29.294Z,98856.20
2019-01-11T06:00:58.288Z,98861.33
2019-01-11T06:03:27.330Z,98861.67
2019-01-11T06:05:56.347Z,98857.05
2019-01-11T06:08:26.226Z,98852.67
2019-01-11T06:10:55.200Z,98857.67
2019-01-11T06:13:24.355Z,98858.25
2019-01-11T06:15:53.359Z,98856.48
2019-01-11T06:18:22.292Z,98848.88
2019-01-11T06:20:51.570Z,98853.16
2019-01-11T06:23:20.544Z,98856.36
2019-01-11T06:25:49.519Z,98857.42
2019-01-11T06:28:18.772Z,98852.58
2019-01-11T06:30:47.838Z,98861.11
2019-01-11T06:33:17.549Z,98858.01
2019-01-11T06:35:46.504Z,98860.03
2019-01-11T06:38:15.460Z,98857.42
2019-01-11T06:40:44.439Z,98861.55
2019-01-11T06:43:13.416Z,98857.41
2019-01-11T06:45:42.306Z,98864.65
2019-01-11T06:48:27.262Z,98866.08
2019-01-11T06:50:56.109Z,98866.20
2019-01-11T06:53:25.093Z,98857.17
2019-01-11T06:55:54.008Z,98869.87
2019-01-11T06:58:22.928Z,98869.87
2019-01-11T07:00:51.832Z,98873.02
2019-01-11T07:03:21.791Z,98864.92
2019-01-11T07:05:50.722Z,98867.07
2019-01-11T07:08:19.626Z,98859.83
2019-01-11T07:10:48.618Z,98874.90
2019-01-11T07:13:17.502Z,98883.79
2019-01-11T07:15:46.476Z,98882.09
2019-01-11T07:18:15.377Z,98877.66
2019-01-11T07:20:44.588Z,98874.73
2019-01-11T07:23:13.914Z,98877.88
2019-01-11T07:25:42.968Z,98879.77
2019-01-11T07:28:13.732Z,98884.92
2019-01-11T07:30:58.620Z,98887.45
2019-01-11T07:33:27.526Z,98887.37
2019-01-11T07:36:07.766Z,98884.59
2019-01-11T07:38:36.674Z,98881.63
2019-01-11T07:41:07.142Z,98875.75
2019-01-11T07:43:35.979Z,98874.40
2019-01-11T07:46:04.944Z,98878.00
2019-01-11T07:48:33.781Z,98876.96
2019-01-11T07:51:02.746Z,98873.21
2019-01-11T07:53:31.656Z,98872.64
2019-01-11T07:56:00.541Z,98875.03
2019-01-11T07:58:29.364Z,98879.59
2019-01-11T08:00:58.265Z,98879.05
2019-01-11T08:03:27.185Z,98884.48
2019-01-11T08:05:56.157Z,98887.50
2019-01-11T08:08:24.985Z,98881.96
2019-01-11T08:10:53.883Z,98885.11
2019-01-11T08:13:22.730Z,98881.30
2019-01-11T08:15:51.627Z,98869.41
2019-01-11T08:18:20.459Z,98874.98
2019-01-11T08:20:55.980Z,98878.25
2019-01-11T08:23:20.114Z,98872.98
2019-01-11T08:25:49.008Z,98872.17
2019-01-11T08:28:17.981Z,98878.86
2019-01-11T08:30:46.790Z,98874.88
2019-01-11T08:33:18.692Z,98875.50
2019-01-11T08:35:46.332Z,98876.66
2019-01-11T08:38:15.170Z,98880.22
2019-01-11T08:40:44.132Z,98879.95
2019-01-11T08:43:13.122Z,98868.53
2019-01-11T08:45:42.044Z,98879.23
2019-01-11T08:48:12.772Z,98877.50
2019-01-11T08:50:41.801Z,98874.22
2019-01-11T08:53:11.271Z,98873.66
2019-01-11T08:55:40.257Z,98870.36
2019-01-11T08:58:09.217Z,98877.81
2019-01-11T09:00:38.137Z,98869.32
2019-01-11T09:03:07.420Z,98868.27
2019-01-11T09:05:36.430Z,98876.58
2019-01-11T09:08:05.613Z,98872.68
2019-01-11T09:10:34.602Z,98868.56
2019-01-11T09:13:03.574Z,98865.72
2019-01-11T09:15:32.626Z,98864.90
2019-01-11T09:18:12.418Z,98873.33
2019-01-11T09:20:41.874Z,98871.55
2019-01-11T09:23:10.868Z,98869.06
2019-01-11T09:25:39.842Z,98868.40
2019-01-11T09:28:08.808Z,98867.78
2019-01-11T09:30:37.780Z,98868.11
2019-01-11T09:33:06.746Z,98871.20
2019-01-11T09:35:35.731Z,98877.98
2019-01-11T09:38:05.030Z,98878.27
2019-01-11T09:40:33.964Z,98872.08
2019-01-11T09:43:02.940Z,98873.45
2019-01-11T09:45:31.783Z,98874.33
2019-01-11T09:48:00.754Z,98873.70
2019-01-11T09:50:29.667Z,98875.90
2019-01-11T09:52:58.619Z,98872.00
2019-01-11T09:55:27.584Z,98878.41
2019-01-11T09:57:56.413Z,98873.39
2019-01-11T10:00:26.844Z,98875.50
2019-01-11T10:03:01.964Z,98869.59
2019-01-11T10:05:30.945Z,98863.92
2019-01-11T10:07:59.840Z,98860.78
2019-01-11T10:10:28.816Z,98859.39
2019-01-11T10:12:57.803Z,98858.79
2019-01-11T10:15:26.740Z,98855.77
2019-01-11T10:17:55.647Z,98854.52
2019-01-11T10:20:24.666Z,98850.58
2019-01-11T10:22:53.473Z,98851.92
2019-01-11T10:25:22.440Z,98848.16
2019-01-11T10:27:51.332Z,98843.33
2019-01-11T10:30:22.068Z,98844.89
2019-01-11T10:32:51.020Z,98840.67
2019-01-11T10:35:19.982Z,98837.03
2019-01-11T10:37:48.974Z,98841.56
2019-01-11T10:40:18.569Z,98841.12
2019-01-11T10:42:48.215Z,98840.45
2019-01-11T10:45:19.698Z,98839.59
2019-01-11T10:47:50.447Z,98834.26
2019-01-11T10:50:19.438Z,98838.64
2019-01-11T10:52:48.668Z,98830.69
2019-01-11T10:55:17.845Z,98827.67
2019-01-11T10:57:47.717Z,98831.70
2019-01-11T11:00:19.444Z,98829.09
2019-01-11T11:02:48.443Z,98827.92
2019-01-11T11:05:17.399Z,98820.89
2019-01-11T11:07:47.004Z,98819.11
2019-01-11T11:10:16.140Z,98818.28
2019-01-11T11:12:45.055Z,98819.63
2019-01-11T11:15:15.385Z,98810.97
2019-01-11T11:17:44.938Z,98807.58
2019-01-11T11:20:15.627Z,98810.89
2019-01-11T11:22:44.912Z,98806.34
2019-01-11T11:25:16.417Z,98802.48
2019-01-11T11:27:45.522Z,98804.16
2019-01-11T11:30:15.503Z,98803.20
2019-01-11T11:32:52.582Z,98797.56
2019-01-11T11:35:21.473Z,98787.84
2019-01-11T11:37:50.483Z,98790.28
2019-01-11T11:40:19.494Z,98794.16
2019-01-11T11:42:49.233Z,98792.59
2019-01-11T11:45:18.329Z,98782.52
2019-01-11T11:47:47.322Z,98786.52
2019-01-11T11:50:16.310Z,98782.86
2019-01-11T11:52:45.286Z,98781.60
2019-01-11T11:55:14.250Z,98785.70
2019-01-11T11:57:43.235Z,98777.20
2019-01-11T12:00:15.477Z,98779.48
2019-01-11T12:02:44.481Z,98774.25
2019-01-11T12:05:13.471Z,98771.61
2019-01-11T12:07:42.490Z,98775.81
2019-01-11T12:10:13.496Z,98771.94
2019-01-11T12:12:42.584Z,98770.52
2019-01-11T12:15:12.536Z,98762.59
2019-01-11T12:17:41.519Z,98762.78
2019-01-11T12:20:17.648Z,98763.34
2019-01-11T12:22:46.640Z,98756.53
2019-01-11T12:25:15.480Z,98750.77
2019-01-11T12:27:44.484Z,98746.95
2019-01-11T12:30:14.038Z,98743.87
2019-01-11T12:32:43.087Z,98749.10
2019-01-11T12:35:11.978Z,98741.51
2019-01-11T12:37:40.975Z,98731.94
2019-01-11T12:40:10.940Z,98731.66
2019-01-11T12:42:39.922Z,98737.36
2019-01-11T12:45:10.594Z,98730.16
2019-01-11T12:47:39.500Z,98727.80
2019-01-11T12:50:12.261Z,98721.86
2019-01-11T12:52:41.165Z,98722.81
2019-01-11T12:55:10.269Z,98713.31
2019-01-11T12:57:39.236Z,98716.55
2019-01-11T13:00:10.702Z,98717.02
2019-01-11T13:02:39.524Z,98714.70
2019-01-11T13:05:10.248Z,98713.31
2019-01-11T13:07:39.589Z,98705.37
2019-01-11T13:10:10.319Z,98707.33
2019-01-11T13:12:39.356Z,98707.27
2019-01-11T13:15:10.974Z,98705.79
2019-01-11T13:17:40.015Z,98707.36
2019-01-11T13:20:11.147Z,98704.97
2019-01-11T13:22:40.307Z,98703.98
2019-01-11T13:25:09.719Z,98710.45
2019-01-11T13:27:38.770Z,98707.95
2019-01-11T13:30:10.625Z,98696.18
2019-01-11T13:32:39.774Z,98694.78
2019-01-11T13:35:08.881Z,98698.27
2019-01-11T13:37:37.970Z,98697.61
2019-01-11T13:40:10.879Z,98698.63
2019-01-11T13:42:39.881Z,98687.75
2019-01-11T13:45:09.515Z,98685.06
2019-01-11T13:47:38.529Z,98690.79
2019-01-11T13:50:15.283Z,98684.61
2019-01-11T13:52:44.344Z,98689.38
2019-01-11T13:55:13.404Z,98692.61
2019-01-11T13:57:42.470Z,98693.23
2019-01-11T14:00:12.921Z,98688.38
2019-01-11T14:02:41.915Z,98682.20
2019-01-11T14:05:11.956Z,98685.59
2019-01-11T14:07:40.955Z,98680.66
2019-01-11T14:10:09.980Z,98681.43
2019-01-11T14:12:39.035Z,98685.30
2019-01-11T14:15:08.436Z,98692.45
2019-01-11T14:17:37.500Z,98687.06
2019-01-11T14:20:06.831Z,98686.08
2019-01-11T14:22:35.892Z,98684.59
2019-01-11T14:25:05.811Z,98680.39
2019-01-11T14:27:34.817Z,98684.53
2019-01-11T14:30:03.910Z,98683.07
2019-01-11T14:32:32.933Z,98684.63
2019-01-11T14:35:01.987Z,98678.03
2019-01-11T14:37:32.373Z,98684.68
2019-01-11T14:40:01.382Z,98680.83
2019-01-11T14:42:30.424Z,98673.80
2019-01-11T14:44:59.352Z,98669.03
2019-01-11T14:47:28.464Z,98667.72
2019-01-11T14:49:57.482Z,98670.28
2019-01-11T14:52:26.487Z,98668.11
2019-01-11T14:54:55.544Z,98673.80
2019-01-11T14:57:24.613Z,98673.91
2019-01-11T14:59:53.609Z,98667.95
2019-01-11T15:02:22.668Z,98666.16
2019-01-11T15:04:51.659Z,98663.95
2019-01-11T15:07:20.656Z,98667.41
2019-01-11T15:09:49.640Z,98666.09
2019-01-11T15:12:18.699Z,98669.34
2019-01-11T15:14:47.728Z,98683.13
2019-01-11T15:17:16.774Z,98673.60
2019-01-11T15:19:45.709Z,98678.84
2019-01-11T15:22:14.683Z,98672.80
2019-01-11T15:24:43.759Z,98667.55
2019-01-11T15:27:12.845Z,98671.81
2019-01-11T15:29:41.828Z,98663.49
2019-01-11T15:32:10.815Z,98655.70
2019-01-11T15:34:40.616Z,98653.08
2019-01-11T15:37:09.549Z,98659.78
2019-01-11T15:39:38.585Z,98659.84
2019-01-11T15:42:07.641Z,98655.91
2019-01-11T15:44:36.672Z,98655.84
2019-01-11T15:47:05.719Z,98657.16
2019-01-11T15:49:34.652Z,98654.44
2019-01-11T15:52:03.772Z,98656.91
2019-01-11T15:54:32.948Z,98655.59
2019-01-11T15:57:02.045Z,98658.22
2019-01-11T15:59:33.686Z,98657.38
2019-01-11T16:02:02.822Z,98662.77
2019-01-11T16:04:31.887Z,98656.52
2019-01-11T16:07:00.938Z,98658.48
2019-01-11T16:10:17.163Z,98649.75
2019-01-11T16:13:12.736Z,98649.53
2019-01-11T16:16:37.819Z,98651.35
2019-01-11T16:19:06.867Z,98652.30
2019-01-11T16:21:35.835Z,98645.91
2019-01-11T16:24:05.512Z,98644.41
2019-01-11T16:26:34.437Z,98643.91
2019-01-11T16:29:03.468Z,98645.57
2019-01-11T16:31:32.483Z,98645.13
2019-01-11T16:34:01.391Z,98639.48
2019-01-11T16:36:30.392Z,98639.88
2019-01-11T16:38:59.566Z,98637.44
2019-01-11T16:41:28.524Z,98628.95
2019-01-11T16:43:57.458Z,98627.71
2019-01-11T16:46:26.301Z,98625.95
2019-01-11T16:48:55.401Z,98623.19
2019-01-11T16:51:24.227Z,98620.56
2019-01-11T16:53:53.067Z,98613.21
2019-01-11T16:56:21.881Z,98611.54
2019-01-11T16:58:50.863Z,98610.38
2019-01-11T17:01:19.841Z,98615.77
2019-01-11T17:03:48.738Z,98611.36
2019-01-11T17:06:17.657Z,98611.90
2019-01-11T17:08:46.566Z,98615.53
2019-01-11T17:11:15.581Z,98615.69
2019-01-11T17:13:44.563Z,98615.83
2019-01-11T17:16:13.762Z,98611.54
2019-01-11T17:18:42.693Z,98608.77
2019-01-11T17:21:11.669Z,98615.69
2019-01-11T17:23:40.566Z,98612.85
2019-01-11T17:26:09.570Z,98615.06
2019-01-11T17:28:38.556Z,98604.07
2019-01-11T17:31:07.556Z,98601.59
2019-01-11T17:33:36.579Z,98598.83
2019-01-11T17:36:05.574Z,98600.20
2019-01-11T17:38:34.395Z,98595.43
2019-01-11T17:41:03.380Z,98590.19
2019-01-11T17:43:32.272Z,98592.66
2019-01-11T17:46:01.179Z,98589.23
2019-01-11T17:48:30.157Z,98583.37
2019-01-11T17:50:59.049Z,98583.16
2019-01-11T17:53:28.022Z,98585.31
2019-01-11T17:55:56.929Z,98576.45
2019-01-11T17:58:25.889Z,98583.37
2019-01-11T18:00:54.709Z,98583.16
2019-01-11T18:03:23.605Z,98585.31
2019-01-11T18:05:52.581Z,98590.19
2019-01-11T18:08:21.540Z,98587.72
2019-01-11T18:10:50.529Z,98589.66
2019-01-11T18:13:19.505Z,98594.56
2019-01-11T18:15:48.513Z,98590.02
2019-01-11T18:18:17.356Z,98593.97
2019-01-11T18:20:46.333Z,98584.17
2019-01-11T18:23:15.322Z,98588.78
2019-01-11T18:25:44.311Z,98579.46
2019-01-11T18:28:13.375Z,98580.15
2019-01-11T18:30:42.426Z,98570.65
2019-01-11T18:33:11.382Z,98581.94
2019-01-11T18:35:40.406Z,98580.50
2019-01-11T18:38:09.417Z,98586.40
2019-01-11T18:40:38.433Z,98577.73
2019-01-11T18:43:07.425Z,98568.41
2019-01-11T18:45:36.336Z,98571.20
2019-01-11T18:48:05.536Z,98573.35
2019-01-11T18:50:34.446Z,98568.58
2019-01-11T18:53:03.366Z,98567.09
2019-01-11T18:55:32.339Z,98571.33
2019-01-11T18:58:01.310Z,98572.64
2019-01-11T19:00:30.220Z,98569.66
2019-01-11T19:02:59.157Z,98573.44
2019-01-11T19:05:28.190Z,98576.27
2019-01-11T19:07:57.095Z,98578.74
2019-01-11T19:10:26.100Z,98569.03
2019-01-11T19:12:55.060Z,98565.43
2019-01-11T19:15:26.956Z,98551.02
2019-01-11T19:17:55.867Z,98552.85
2019-01-11T19:20:29.639Z,98545.29
2019-01-11T19:22:59.463Z,98548.90
2019-01-11T19:25:28.483Z,98540.10
2019-01-11T19:27:57.369Z,98537.80
2019-01-11T19:30:28.179Z,98534.08
2019-01-11T19:32:57.297Z,98530.92
2019-01-11T19:35:26.224Z,98544.45
2019-01-11T19:37:55.196Z,98550.36
2019-01-11T19:40:24.157Z,98553.00
2019-01-11T19:42:53.328Z,98546.13
2019-01-11T19:45:22.299Z,98549.75
2019-01-11T19:47:51.295Z,98546.18
2019-01-11T19:50:22.176Z,98542.89
2019-01-11T19:52:51.837Z,98547.98
2019-01-11T19:55:21.105Z,98554.06
2019-01-11T19:57:50.061Z,98551.65
2019-01-11T20:00:21.575Z,98546.50
2019-01-11T20:02:50.869Z,98540.13
2019-01-11T20:05:20.411Z,98542.47
2019-01-11T20:07:49.484Z,98532.09
2019-01-11T20:10:20.968Z,98536.07
2019-01-11T20:12:49.946Z,98527.06
2019-01-11T20:15:18.962Z,98518.89
2019-01-11T20:17:47.967Z,98520.56
2019-01-11T20:20:17.044Z,98521.87
2019-01-11T20:22:46.127Z,98517.63
2019-01-11T20:25:17.686Z,98523.08
2019-01-11T20:27:46.684Z,98519.78
2019-01-11T20:30:18.123Z,98522.55
2019-01-11T20:32:47.379Z,98522.05
2019-01-11T20:35:16.416Z,98527.28
2019-01-11T20:37:45.622Z,98529.95
2019-01-11T20:40:15.672Z,98532.10
2019-01-11T20:42:44.746Z,98533.41
2019-01-11T20:45:16.008Z,98540.91
2019-01-11T20:47:45.170Z,98531.36
2019-01-11T20:50:17.041Z,98529.89
2019-01-11T20:52:46.061Z,98537.86
2019-01-11T20:55:15.206Z,98540.23
2019-01-11T20:57:44.419Z,98534.93
2019-01-11T21:00:22.511Z,98534.25
2019-01-11T21:02:51.631Z,98529.69
2019-01-11T21:05:20.913Z,98529.64
2019-01-11T21:07:49.920Z,98530.63
2019-01-11T21:10:19.873Z,98528.38
2019-01-11T21:12:48.732Z,98531.83
2019-01-11T21:15:18.005Z,98531.47
2019-01-11T21:17:47.267Z,98529.53
2019-01-11T21:20:17.232Z,98531.16
2019-01-11T21:22:46.496Z,98525.70
2019-01-11T21:25:16.237Z,98524.45
2019-01-11T21:27:45.550Z,98523.36
2019-01-11T21:30:20.064Z,98523.51
2019-01-11T21:32:49.125Z,98517.46
2019-01-11T21:35:18.323Z,98524.80
2019-01-11T21:37:47.434Z,98525.80
2019-01-11T21:40:17.995Z,98526.23
2019-01-11T21:42:47.693Z,98527.70
2019-01-11T21:45:17.845Z,98529.36
2019-01-11T21:47:47.608Z,98522.66
2019-01-11T21:50:21.632Z,98521.67
2019-01-11T21:52:50.914Z,98522.05
2019-01-11T21:55:20.188Z,98525.45
2019-01-11T21:57:49.419Z,98517.58
2019-01-11T22:00:38.754Z,98517.46
2019-01-11T22:03:10.319Z,98522.40
2019-01-11T22:05:39.352Z,98526.18
2019-01-11T22:08:08.382Z,98516.47
2019-01-11T22:10:37.436Z,98508.08
2019-01-11T22:13:06.461Z,98513.91
2019-01-11T22:15:35.514Z,98513.58
2019-01-11T22:18:04.831Z,98514.56
2019-01-11T22:20:33.700Z,98510.58
2019-01-11T22:23:02.721Z,98510.96
2019-01-11T22:25:31.793Z,98509.70
2019-01-11T22:28:00.803Z,98508.66
2019-01-11T22:30:30.617Z,98506.55
2019-01-11T22:32:59.557Z,98506.34
2019-01-11T22:35:28.522Z,98508.49
2019-01-11T22:37:57.522Z,98513.53
2019-01-11T22:40:26.577Z,98507.28
2019-01-11T22:42:58.003Z,98503.45
2019-01-11T22:45:27.026Z,98508.42
2019-01-11T22:47:56.209Z,98505.12
2019-01-11T22:50:25.203Z,98512.83
2019-01-11T22:52:54.326Z,98511.83
2019-01-11T22:55:23.391Z,98517.06
2019-01-11T22:57:52.473Z,98507.23
2019-01-11T23:00:57.012Z,98506.60
2019-01-11T23:03:39.423Z,98506.95
2019-01-11T23:06:23.802Z,98513.31
2019-01-11T23:08:52.786Z,98512.63
2019-01-11T23:11:59.567Z,98506.60
2019-01-11T23:14:28.523Z,98518.92
2019-01-11T23:17:37.464Z,98514.19
2019-01-11T23:20:08.946Z,98515.30
2019-01-11T23:22:37.910Z,98516.23
2019-01-11T23:25:06.915Z,98512.58
2019-01-11T23:27:36.539Z,98514.84
2019-01-11T23:30:08.809Z,98518.14
2019-01-11T23:32:37.949Z,98523.54
2019-01-11T23:35:07.035Z,98516.81
2019-01-11T23:37:36.026Z,98520.75
2019-01-11T23:40:06.596Z,98516.16
2019-01-11T23:42:35.604Z,98520.87
2019-01-11T23:45:05.187Z,98517.52
2019-01-11T23:47:34.174Z,98509.97
2019-01-11T23:50:03.197Z,98509.88
2019-01-11T23:52:32.198Z,98509.24
2019-01-11T23:55:01.014Z,98512.22
2019-01-11T23:57:29.976Z,98501.27
2019-01-11T23:59:58.944Z,98506.66
